Time;durP1;ratioP1;P1;durP2;ratioP2;P2;SDS_P1;SDS_P2;PMS_P1;PMS_P2;Temp;Humidity;BMP_temperature;BMP_pressure;BME280_temperature;BME280_humidity;BME280_pressure;Samples;Min_cycle;Max_cycle;Signal;HPM_P1;HPM_P2
2023/01/25 00:01:53;;;;;;;16.63;7.88;;;4.40;99.90;;;;;;6222089;23;20020;-76
2023/01/25 00:04:20;;;;;;;16.33;8.13;;;4.40;99.90;;;;;;6220485;23;20008;-75
2023/01/25 00:06:46;;;;;;;15.18;8.10;;;4.40;99.90;;;;;;6222221;23;19997;-75
2023/01/25 00:09:12;;;;;;;15.02;7.68;;;4.40;99.90;;;;;;6219916;23;20460;-75
2023/01/25 00:11:38;;;;;;;14.38;6.70;;;4.40;99.90;;;;;;6221853;23;20083;-75
2023/01/25 00:14:04;;;;;;;15.35;7.35;;;4.50;99.90;;;;;;6220929;23;20004;-76
2023/01/25 00:16:30;;;;;;;16.27;7.63;;;4.50;99.90;;;;;;6220286;23;20009;-75
2023/01/25 00:18:56;;;;;;;14.75;7.40;;;4.50;99.90;;;;;;6222157;23;20079;-76
2023/01/25 00:21:24;;;;;;;16.65;7.95;;;4.60;99.90;;;;;;6222051;23;20024;-75
2023/01/25 00:23:50;;;;;;;17.48;7.55;;;4.60;99.90;;;;;;6220522;23;20020;-76
2023/01/25 00:26:16;;;;;;;14.52;6.68;;;4.50;99.90;;;;;;6220739;23;20005;-76
2023/01/25 00:28:42;;;;;;;14.25;7.18;;;4.50;99.90;;;;;;6221593;23;20013;-76
2023/01/25 00:31:15;;;;;;;14.20;7.55;;;4.50;99.90;;;;;;6219925;23;20441;-75
2023/01/25 00:33:59;;;;;;;15.10;7.32;;;4.50;99.90;;;;;;6219786;23;20004;-76
2023/01/25 00:36:36;;;;;;;15.68;7.00;;;4.50;99.90;;;;;;6219620;23;20019;-75
2023/01/25 00:39:03;;;;;;;14.20;7.00;;;4.40;99.90;;;;;;6221447;23;20011;-76
2023/01/25 00:41:29;;;;;;;16.65;7.72;;;4.40;99.90;;;;;;6222040;23;20003;-75
2023/01/25 00:43:54;;;;;;;12.43;5.93;;;4.40;99.90;;;;;;6220444;23;20394;-76
2023/01/25 00:46:20;;;;;;;14.77;6.57;;;4.40;99.90;;;;;;6221585;23;20004;-75
2023/01/25 00:48:46;;;;;;;12.55;5.85;;;4.40;99.90;;;;;;6220471;23;20008;-76
2023/01/25 00:51:12;;;;;;;12.65;6.10;;;4.40;99.90;;;;;;6219169;23;20012;-75
2023/01/25 00:53:38;;;;;;;11.43;5.55;;;4.30;99.90;;;;;;6220856;23;20026;-76
2023/01/25 00:56:04;;;;;;;12.23;5.68;;;4.40;99.90;;;;;;6221616;23;20071;-76
2023/01/25 00:58:29;;;;;;;10.75;5.70;;;4.40;99.90;;;;;;6221748;23;20001;-76
2023/01/25 01:00:56;;;;;;;14.95;6.78;;;4.40;99.90;;;;;;6221585;23;20072;-76
2023/01/25 01:03:22;;;;;;;14.40;6.75;;;4.40;99.90;;;;;;6221473;23;20000;-76
2023/01/25 01:05:47;;;;;;;13.85;6.45;;;4.30;99.90;;;;;;6221761;23;20005;-76
2023/01/25 01:08:14;;;;;;;12.60;7.00;;;4.30;99.90;;;;;;6220203;23;20100;-76
2023/01/25 01:10:40;;;;;;;15.80;7.20;;;4.30;99.90;;;;;;6220960;23;20008;-75
2023/01/25 01:13:07;;;;;;;14.82;7.22;;;4.30;99.90;;;;;;6220372;23;20016;-76
2023/01/25 01:15:36;;;;;;;16.27;8.00;;;4.30;99.90;;;;;;6220319;23;20011;-75
2023/01/25 01:18:02;;;;;;;15.77;8.57;;;4.30;99.90;;;;;;6219683;23;20063;-76
2023/01/25 01:20:28;;;;;;;17.90;7.95;;;4.20;99.90;;;;;;6219892;23;20008;-75
2023/01/25 01:22:56;;;;;;;17.33;7.00;;;4.20;99.90;;;;;;6221437;23;20323;-76
2023/01/25 01:25:22;;;;;;;16.58;7.72;;;4.20;99.90;;;;;;6221263;23;20004;-75
2023/01/25 01:27:48;;;;;;;14.70;7.28;;;4.30;99.90;;;;;;6219554;23;20345;-75
2023/01/25 01:30:13;;;;;;;17.20;8.25;;;4.20;99.90;;;;;;6220887;23;20350;-76
2023/01/25 01:32:39;;;;;;;15.68;7.22;;;4.20;99.90;;;;;;6219455;23;20346;-75
2023/01/25 01:35:05;;;;;;;17.15;7.72;;;4.20;99.90;;;;;;6221529;23;20039;-75
2023/01/25 01:37:31;;;;;;;14.60;6.65;;;4.30;99.90;;;;;;6221007;23;20348;-76
2023/01/25 01:39:57;;;;;;;14.30;6.68;;;4.20;99.90;;;;;;6221485;23;20001;-76
2023/01/25 01:42:23;;;;;;;15.85;7.63;;;4.20;99.90;;;;;;6221372;23;20000;-75
2023/01/25 01:44:51;;;;;;;15.13;7.20;;;4.30;99.90;;;;;;6221395;23;20003;-76
2023/01/25 01:47:32;;;;;;;14.68;7.40;;;4.30;99.90;;;;;;6221295;23;20430;-75
2023/01/25 01:50:05;;;;;;;14.27;7.18;;;4.30;99.90;;;;;;6221276;23;20072;-76
2023/01/25 01:52:35;;;;;;;14.15;7.32;;;4.20;99.90;;;;;;6221074;23;20497;-76
2023/01/25 01:55:09;;;;;;;16.48;7.10;;;4.30;99.90;;;;;;6221319;23;20339;-75
2023/01/25 01:57:40;;;;;;;14.30;6.75;;;4.30;99.90;;;;;;6219763;23;20004;-75
2023/01/25 02:00:10;;;;;;;15.48;7.68;;;4.30;99.90;;;;;;6221287;23;20080;-77
2023/01/25 02:02:36;;;;;;;16.90;7.00;;;4.30;99.90;;;;;;6221102;23;20434;-76
2023/01/25 02:05:05;;;;;;;17.50;8.13;;;4.20;99.90;;;;;;6221604;23;20024;-76
2023/01/25 02:07:34;;;;;;;17.50;8.60;;;4.20;99.90;;;;;;6220849;23;20011;-75
2023/01/25 02:10:00;;;;;;;17.20;7.93;;;4.20;99.90;;;;;;6220965;23;20329;-75
2023/01/25 02:12:27;;;;;;;15.30;7.60;;;4.20;99.90;;;;;;6219644;23;20005;-76
2023/01/25 02:14:53;;;;;;;15.85;8.02;;;4.20;99.90;;;;;;6220889;23;20004;-76
2023/01/25 02:17:28;;;;;;;14.30;6.82;;;4.20;99.90;;;;;;6218809;23;20008;-76
2023/01/25 02:20:20;;;;;;;15.85;7.93;;;4.20;99.90;;;;;;6220983;23;20311;-76
2023/01/25 02:23:07;;;;;;;12.98;6.53;;;4.20;99.90;;;;;;6219131;23;20063;-76
2023/01/25 02:25:32;;;;;;;14.52;7.45;;;4.20;99.90;;;;;;6220935;23;20054;-75
2023/01/25 02:28:17;;;;;;;13.57;6.22;;;4.20;99.90;;;;;;6220468;23;20434;-76
2023/01/25 02:30:43;;;;;;;13.65;6.82;;;4.20;99.90;;;;;;6220725;23;20361;-76
2023/01/25 02:33:09;;;;;;;14.35;6.85;;;4.20;99.90;;;;;;6220994;23;20005;-75
2023/01/25 02:35:52;;;;;;;14.50;7.43;;;4.10;99.90;;;;;;6220850;23;20008;-76
2023/01/25 02:38:20;;;;;;;14.30;7.63;;;4.10;99.90;;;;;;6219043;23;20012;-75
2023/01/25 02:40:58;;;;;;;15.70;6.82;;;4.10;99.90;;;;;;6219168;23;20004;-75
2023/01/25 02:43:28;;;;;;;14.55;7.05;;;4.10;99.90;;;;;;6218945;23;20007;-76
2023/01/25 02:46:11;;;;;;;14.68;7.18;;;4.20;99.90;;;;;;6220314;23;20017;-77
2023/01/25 02:48:36;;;;;;;16.65;8.02;;;4.20;99.90;;;;;;6220346;23;20000;-77
2023/01/25 02:51:06;;;;;;;13.48;6.68;;;4.20;99.90;;;;;;6220859;23;20000;-76
2023/01/25 02:53:32;;;;;;;13.60;6.55;;;4.20;99.90;;;;;;6220509;23;20005;-76
2023/01/25 02:55:57;;;;;;;14.70;6.60;;;4.20;99.90;;;;;;6220727;23;20059;-75
2023/01/25 02:58:23;;;;;;;16.55;7.60;;;4.10;99.90;;;;;;6220659;23;20009;-76
2023/01/25 03:00:49;;;;;;;13.20;6.57;;;4.10;99.90;;;;;;6220593;23;20004;-76
2023/01/25 03:03:14;;;;;;;17.02;7.93;;;4.10;99.90;;;;;;6220603;23;20373;-75
2023/01/25 03:05:40;;;;;;;17.67;8.45;;;4.20;99.90;;;;;;6219379;23;20004;-76
2023/01/25 03:08:05;;;;;;;16.25;7.68;;;4.10;99.90;;;;;;6218683;23;20112;-76
2023/01/25 03:10:31;;;;;;;16.10;7.65;;;4.10;99.90;;;;;;6220489;23;20326;-75
2023/01/25 03:12:57;;;;;;;18.45;8.43;;;4.10;99.90;;;;;;6220693;23;20005;-76
2023/01/25 03:15:22;;;;;;;15.15;7.60;;;4.00;99.90;;;;;;6220866;23;20007;-75
2023/01/25 03:17:48;;;;;;;16.67;8.55;;;4.00;99.90;;;;;;6219393;23;20028;-75
2023/01/25 03:20:13;;;;;;;17.83;8.20;;;4.00;99.90;;;;;;6220919;23;20445;-76
2023/01/25 03:22:39;;;;;;;17.35;8.10;;;3.90;99.90;;;;;;6220354;23;20001;-76
2023/01/25 03:25:05;;;;;;;17.10;8.35;;;4.00;99.90;;;;;;6220515;23;20027;-75
2023/01/25 03:27:31;;;;;;;16.92;8.25;;;3.90;99.90;;;;;;6220781;23;20000;-75
2023/01/25 03:29:57;;;;;;;16.33;7.95;;;4.00;99.90;;;;;;6218878;23;20071;-75
2023/01/25 03:32:22;;;;;;;16.08;7.80;;;4.00;99.90;;;;;;6218580;23;20001;-75
2023/01/25 03:34:48;;;;;;;15.65;8.85;;;4.00;99.90;;;;;;6219980;23;20075;-75
2023/01/25 03:37:14;;;;;;;15.20;7.30;;;4.00;99.90;;;;;;6218621;23;20011;-75
2023/01/25 03:39:40;;;;;;;17.30;8.50;;;4.00;99.90;;;;;;6219978;23;20021;-75
2023/01/25 03:42:06;;;;;;;18.92;8.77;;;3.90;99.90;;;;;;6220223;23;20024;-75
2023/01/25 03:44:32;;;;;;;15.63;7.55;;;3.90;99.90;;;;;;6218602;23;20005;-75
2023/01/25 03:46:58;;;;;;;18.42;8.20;;;3.90;99.90;;;;;;6218281;23;20004;-75
2023/01/25 03:49:23;;;;;;;18.88;8.65;;;3.90;99.90;;;;;;6220542;23;20422;-75
2023/01/25 03:51:49;;;;;;;14.85;7.47;;;3.90;99.90;;;;;;6220173;23;20345;-75
2023/01/25 03:54:15;;;;;;;16.35;8.23;;;3.90;99.90;;;;;;6220097;23;20032;-75
2023/01/25 03:56:40;;;;;;;16.85;7.22;;;3.90;99.90;;;;;;6220438;23;20337;-76
2023/01/25 03:59:06;;;;;;;14.25;6.78;;;3.90;99.90;;;;;;6218967;23;20009;-76
2023/01/25 04:01:31;;;;;;;16.58;7.60;;;3.90;99.90;;;;;;6218860;23;20036;-75
2023/01/25 04:03:57;;;;;;;15.95;7.60;;;3.90;99.90;;;;;;6220407;23;20362;-76
2023/01/25 04:06:23;;;;;;;18.05;6.75;;;3.90;99.90;;;;;;6220736;23;20067;-75
2023/01/25 04:08:48;;;;;;;16.17;7.75;;;3.90;99.90;;;;;;6220333;23;20371;-76
2023/01/25 04:11:14;;;;;;;18.38;8.30;;;3.90;99.90;;;;;;6218849;23;20032;-76
2023/01/25 04:13:39;;;;;;;16.08;7.13;;;3.90;99.90;;;;;;6218847;23;20418;-75
2023/01/25 04:16:07;;;;;;;14.90;7.75;;;3.90;99.90;;;;;;6220353;23;20007;-76
2023/01/25 04:18:33;;;;;;;16.45;7.35;;;3.90;99.90;;;;;;6218558;23;20009;-76
2023/01/25 04:20:59;;;;;;;17.45;7.88;;;3.90;99.90;;;;;;6220271;23;20067;-76
2023/01/25 04:23:25;;;;;;;16.67;7.32;;;3.90;99.90;;;;;;6218267;23;20015;-76
2023/01/25 04:25:59;;;;;;;15.35;7.00;;;3.90;99.90;;;;;;6219978;23;19997;-75
2023/01/25 04:28:25;;;;;;;12.25;6.30;;;3.90;99.90;;;;;;6219809;23;20000;-76
2023/01/25 04:30:53;;;;;;;15.18;6.78;;;3.90;99.90;;;;;;6219995;23;20005;-76
2023/01/25 04:33:18;;;;;;;14.63;6.85;;;3.90;99.90;;;;;;6219823;23;20080;-76
2023/01/25 04:35:44;;;;;;;16.42;7.40;;;3.90;99.90;;;;;;6220219;23;19997;-75
2023/01/25 04:38:10;;;;;;;14.05;6.00;;;3.90;99.90;;;;;;6219768;23;20013;-76
2023/01/25 04:40:36;;;;;;;12.68;6.03;;;3.90;99.90;;;;;;6220159;23;20000;-76
2023/01/25 04:43:02;;;;;;;12.77;5.65;;;3.90;99.90;;;;;;6220210;23;19996;-76
2023/01/25 04:45:27;;;;;;;15.23;6.88;;;3.90;99.90;;;;;;6221142;23;20024;-75
2023/01/25 04:47:58;;;;;;;14.88;6.63;;;3.80;99.90;;;;;;6221934;23;20084;-76
2023/01/25 04:50:24;;;;;;;13.70;6.43;;;3.90;99.90;;;;;;6221921;23;20426;-75
2023/01/25 04:52:50;;;;;;;14.98;6.22;;;3.90;99.90;;;;;;6221681;23;20000;-76
2023/01/25 04:55:16;;;;;;;11.93;5.45;;;3.90;99.90;;;;;;6220331;23;20027;-76
2023/01/25 04:57:42;;;;;;;14.10;6.50;;;3.80;99.90;;;;;;6222012;23;20008;-76
2023/01/25 05:00:08;;;;;;;11.57;5.22;;;3.80;99.90;;;;;;6221801;23;19997;-75
2023/01/25 05:02:34;;;;;;;12.05;6.07;;;3.90;99.90;;;;;;6220071;23;20334;-75
2023/01/25 05:05:00;;;;;;;12.20;6.22;;;3.90;99.90;;;;;;6221864;23;19993;-75
2023/01/25 05:07:25;;;;;;;14.07;6.05;;;3.90;99.90;;;;;;6221573;23;20079;-75
2023/01/25 05:09:51;;;;;;;14.70;5.75;;;3.80;99.90;;;;;;6221746;23;20001;-75
2023/01/25 05:12:17;;;;;;;13.25;5.82;;;3.80;99.90;;;;;;6222376;23;20300;-75
2023/01/25 05:14:42;;;;;;;11.55;5.53;;;3.90;99.90;;;;;;6221717;23;20449;-75
2023/01/25 05:17:08;;;;;;;12.48;6.38;;;3.90;99.90;;;;;;6219946;23;20447;-74
2023/01/25 05:19:34;;;;;;;10.88;5.55;;;3.90;99.90;;;;;;6221856;23;20023;-75
2023/01/25 05:22:01;;;;;;;10.43;5.15;;;3.90;99.90;;;;;;6219960;23;20000;-75
2023/01/25 05:24:29;;;;;;;12.90;5.70;;;3.90;99.90;;;;;;6219680;23;20032;-75
2023/01/25 05:27:04;;;;;;;12.18;5.85;;;3.90;99.90;;;;;;6219733;23;20009;-75
2023/01/25 05:29:34;;;;;;;10.55;5.28;;;3.90;99.90;;;;;;6221372;23;20445;-76
2023/01/25 05:32:01;;;;;;;13.30;6.38;;;4.00;99.90;;;;;;6221178;23;20393;-76
2023/01/25 05:34:27;;;;;;;14.02;6.07;;;3.90;99.90;;;;;;6221418;23;20001;-75
2023/01/25 05:36:53;;;;;;;13.98;6.47;;;3.90;99.90;;;;;;6221239;23;20008;-76
2023/01/25 05:39:19;;;;;;;14.75;6.18;;;3.90;99.90;;;;;;6221103;23;20335;-76
2023/01/25 05:41:45;;;;;;;14.48;6.35;;;3.90;99.90;;;;;;6221428;23;20001;-76
2023/01/25 05:44:10;;;;;;;16.63;7.35;;;3.90;99.90;;;;;;6219758;23;20004;-76
2023/01/25 05:46:36;;;;;;;16.33;7.63;;;3.90;99.90;;;;;;6221128;23;20007;-76
2023/01/25 05:49:02;;;;;;;15.48;7.28;;;3.90;99.90;;;;;;6221748;23;20005;-76
2023/01/25 05:51:28;;;;;;;17.58;7.07;;;3.80;99.90;;;;;;6221310;23;20495;-76
2023/01/25 05:53:57;;;;;;;14.23;7.22;;;3.80;99.90;;;;;;6219594;23;20044;-76
2023/01/25 05:56:23;;;;;;;16.23;7.10;;;3.80;99.90;;;;;;6219239;23;20020;-76
2023/01/25 05:58:56;;;;;;;15.55;6.93;;;3.70;99.90;;;;;;6219523;23;20339;-76
2023/01/25 06:01:22;;;;;;;15.90;7.00;;;3.70;99.90;;;;;;6220461;23;20488;-76
2023/01/25 06:03:48;;;;;;;15.70;6.60;;;3.70;99.90;;;;;;6220295;23;19997;-76
2023/01/25 06:06:14;;;;;;;16.77;7.53;;;3.70;99.90;;;;;;6221475;23;19992;-76
2023/01/25 06:08:40;;;;;;;15.90;7.18;;;3.80;99.90;;;;;;6219381;23;20087;-76
2023/01/25 06:11:13;;;;;;;15.32;6.68;;;3.70;99.90;;;;;;6221392;23;20303;-76
2023/01/25 06:13:39;;;;;;;15.32;6.55;;;3.70;99.90;;;;;;6220364;23;20013;-76
2023/01/25 06:16:06;;;;;;;14.45;7.65;;;3.60;99.90;;;;;;6221005;23;20032;-76
2023/01/25 06:18:33;;;;;;;20.42;9.07;;;3.60;99.90;;;;;;6220666;23;20024;-76
2023/01/25 06:21:00;;;;;;;16.83;7.28;;;3.60;99.90;;;;;;6220914;23;20453;-76
2023/01/25 06:23:25;;;;;;;16.15;7.78;;;3.60;99.90;;;;;;6219029;23;20005;-76
2023/01/25 06:25:54;;;;;;;15.27;7.32;;;3.60;99.90;;;;;;6220961;23;20003;-76
2023/01/25 06:28:20;;;;;;;15.35;6.72;;;3.60;99.90;;;;;;6220582;23;20072;-76
2023/01/25 06:30:45;;;;;;;16.70;7.93;;;3.60;99.90;;;;;;6220576;23;20008;-75
2023/01/25 06:33:11;;;;;;;17.60;7.85;;;3.50;99.90;;;;;;6218813;23;20011;-76
2023/01/25 06:35:39;;;;;;;16.67;7.55;;;3.50;99.90;;;;;;6220726;23;20015;-76
2023/01/25 06:38:04;;;;;;;16.10;7.50;;;3.50;99.90;;;;;;6220207;23;20031;-76
2023/01/25 06:40:30;;;;;;;15.80;6.78;;;3.50;99.90;;;;;;6220489;23;20311;-75
2023/01/25 06:43:06;;;;;;;16.48;7.65;;;3.50;99.90;;;;;;6220457;23;20007;-75
2023/01/25 06:45:32;;;;;;;13.45;6.50;;;3.50;99.90;;;;;;6220267;23;20096;-75
2023/01/25 06:47:57;;;;;;;15.93;7.22;;;3.50;99.90;;;;;;6220469;23;20000;-75
2023/01/25 06:50:23;;;;;;;13.85;6.38;;;3.40;99.90;;;;;;6220951;23;20008;-75
2023/01/25 06:52:53;;;;;;;13.65;6.60;;;3.50;99.90;;;;;;6219958;23;20041;-75
2023/01/25 06:55:19;;;;;;;16.50;7.47;;;3.50;99.90;;;;;;6220584;23;20004;-75
2023/01/25 06:57:45;;;;;;;16.45;7.40;;;3.50;99.90;;;;;;6220120;23;20001;-75
2023/01/25 07:00:11;;;;;;;15.07;7.55;;;3.40;99.90;;;;;;6218672;23;20335;-75
2023/01/25 07:02:36;;;;;;;13.55;7.50;;;3.40;99.90;;;;;;6219116;23;20028;-75
2023/01/25 07:05:02;;;;;;;16.13;7.95;;;3.30;99.90;;;;;;6220871;23;20330;-75
2023/01/25 07:07:28;;;;;;;14.35;6.65;;;3.30;99.90;;;;;;6218262;23;20052;-75
2023/01/25 07:09:54;;;;;;;15.50;7.45;;;3.30;99.90;;;;;;6217323;23;20419;-75
2023/01/25 07:12:21;;;;;;;18.77;8.18;;;3.40;99.90;;;;;;6216108;23;20012;-75
2023/01/25 07:14:48;;;;;;;15.32;7.75;;;3.40;99.90;;;;;;6218955;23;20036;-75
2023/01/25 07:17:14;;;;;;;17.30;7.70;;;3.40;99.90;;;;;;6217119;23;20085;-75
2023/01/25 07:19:40;;;;;;;15.52;7.10;;;3.40;99.90;;;;;;6219202;23;20000;-75
2023/01/25 07:22:05;;;;;;;15.55;7.38;;;3.40;99.90;;;;;;6219990;23;20116;-76
2023/01/25 07:24:31;;;;;;;15.68;7.20;;;3.50;99.90;;;;;;6219861;23;20504;-75
2023/01/25 07:26:57;;;;;;;14.90;6.93;;;3.50;99.90;;;;;;6218732;23;20032;-75
2023/01/25 07:29:23;;;;;;;17.00;8.15;;;3.50;99.90;;;;;;6219787;23;20008;-75
2023/01/25 07:31:48;;;;;;;15.13;7.90;;;3.40;99.90;;;;;;6218446;23;20346;-76
2023/01/25 07:34:14;;;;;;;18.08;8.05;;;3.40;99.90;;;;;;6219878;23;20338;-74
2023/01/25 07:36:40;;;;;;;16.83;7.75;;;3.40;99.90;;;;;;6219739;23;20000;-76
2023/01/25 07:39:08;;;;;;;15.13;7.35;;;3.40;99.90;;;;;;6219515;23;20039;-74
2023/01/25 07:41:35;;;;;;;17.75;8.20;;;3.40;99.90;;;;;;6219730;23;19997;-76
2023/01/25 07:44:00;;;;;;;18.65;8.60;;;3.40;99.90;;;;;;6220211;23;19997;-75
2023/01/25 07:46:26;;;;;;;19.15;9.20;;;3.30;99.90;;;;;;6220041;23;20093;-74
2023/01/25 07:48:52;;;;;;;15.25;7.88;;;3.30;99.90;;;;;;6220427;23;20039;-74
2023/01/25 07:51:25;;;;;;;19.40;9.43;;;3.30;99.90;;;;;;6218975;23;20008;-75
2023/01/25 07:53:55;;;;;;;17.30;8.75;;;3.20;99.90;;;;;;6218185;23;20001;-75
2023/01/25 07:56:23;;;;;;;14.63;7.68;;;3.20;99.90;;;;;;6218466;23;20471;-75
2023/01/25 07:58:51;;;;;;;16.67;7.93;;;3.20;99.90;;;;;;6220070;23;20312;-75
2023/01/25 08:01:19;;;;;;;15.50;7.57;;;3.20;99.90;;;;;;6218735;23;20005;-74
2023/01/25 08:03:46;;;;;;;17.55;7.63;;;3.10;99.90;;;;;;6219811;23;20003;-75
2023/01/25 08:06:12;;;;;;;16.30;8.68;;;3.20;99.90;;;;;;6219942;23;20001;-74
2023/01/25 08:08:44;;;;;;;15.25;6.88;;;3.20;99.90;;;;;;6219914;23;20054;-74
2023/01/25 08:11:20;;;;;;;18.60;8.75;;;3.20;99.90;;;;;;6219751;23;20072;-74
2023/01/25 08:13:48;;;;;;;16.25;7.07;;;3.20;99.90;;;;;;6218862;23;20067;-75
2023/01/25 08:16:16;;;;;;;16.17;7.28;;;3.30;99.90;;;;;;6219919;23;20020;-75
2023/01/25 08:18:42;;;;;;;16.70;7.60;;;3.30;99.90;;;;;;6218048;23;20032;-75
2023/01/25 08:21:08;;;;;;;13.48;7.15;;;3.30;99.90;;;;;;6220951;23;20074;-75
2023/01/25 08:23:34;;;;;;;16.38;7.68;;;3.40;99.90;;;;;;6221645;23;20007;-74
2023/01/25 08:26:02;;;;;;;17.95;7.97;;;3.30;99.90;;;;;;6219032;23;20406;-75
2023/01/25 08:28:27;;;;;;;19.15;8.73;;;3.30;99.90;;;;;;6219928;23;20095;-74
2023/01/25 08:30:53;;;;;;;18.10;8.60;;;3.30;99.90;;;;;;6221905;23;20007;-74
2023/01/25 08:33:19;;;;;;;15.43;7.53;;;3.10;99.90;;;;;;6220103;23;20004;-73
2023/01/25 08:35:55;;;;;;;18.05;8.48;;;3.10;99.90;;;;;;6220217;23;20009;-71
2023/01/25 08:38:21;;;;;;;17.95;8.88;;;3.10;99.90;;;;;;6221507;23;20461;-73
2023/01/25 08:40:46;;;;;;;15.85;8.10;;;3.20;99.90;;;;;;6221285;23;20005;-71
2023/01/25 08:43:12;;;;;;;16.55;8.07;;;3.20;99.90;;;;;;6221667;23;19996;-70
2023/01/25 08:45:37;;;;;;;17.52;8.35;;;3.20;99.90;;;;;;6219700;23;20008;-70
2023/01/25 08:48:03;;;;;;;17.60;7.80;;;3.20;99.90;;;;;;6220118;23;20013;-71
2023/01/25 08:50:29;;;;;;;16.20;7.28;;;3.20;99.90;;;;;;6219742;23;20005;-71
2023/01/25 08:52:55;;;;;;;16.83;8.00;;;3.10;99.90;;;;;;6221530;23;20005;-71
2023/01/25 08:55:20;;;;;;;15.32;7.07;;;3.20;99.90;;;;;;6221170;23;20032;-71
2023/01/25 08:57:46;;;;;;;15.30;7.45;;;3.10;99.90;;;;;;6221617;23;20054;-71
2023/01/25 09:00:13;;;;;;;16.48;7.00;;;3.20;99.90;;;;;;6221398;23;20005;-71
2023/01/25 09:02:38;;;;;;;15.98;8.10;;;3.10;99.90;;;;;;6221276;23;20004;-71
2023/01/25 09:05:04;;;;;;;16.67;7.53;;;3.20;99.90;;;;;;6221438;23;20458;-70
2023/01/25 09:07:31;;;;;;;17.25;8.20;;;3.20;99.90;;;;;;6221063;23;20028;-71
2023/01/25 09:09:57;;;;;;;15.65;7.57;;;3.20;99.90;;;;;;6220937;23;20004;-73
2023/01/25 09:12:22;;;;;;;16.85;7.25;;;3.20;99.90;;;;;;6220738;23;20130;-73
2023/01/25 09:14:48;;;;;;;14.75;6.63;;;3.30;99.90;;;;;;6221623;23;20036;-73
2023/01/25 09:17:14;;;;;;;13.38;7.13;;;3.30;99.90;;;;;;6220668;23;20027;-73
2023/01/25 09:19:41;;;;;;;16.63;7.75;;;3.40;99.90;;;;;;6219728;23;20000;-73
2023/01/25 09:22:07;;;;;;;14.70;6.47;;;3.50;99.90;;;;;;6221008;23;19997;-73
2023/01/25 09:24:33;;;;;;;15.43;7.75;;;3.60;99.90;;;;;;6219766;23;20012;-73
2023/01/25 09:26:59;;;;;;;15.63;7.20;;;3.60;99.90;;;;;;6221122;23;20325;-74
2023/01/25 09:29:25;;;;;;;17.25;7.55;;;3.50;99.90;;;;;;6219496;23;20047;-73
2023/01/25 09:31:51;;;;;;;15.73;7.75;;;3.50;99.90;;;;;;6218815;23;20532;-73
2023/01/25 09:34:17;;;;;;;16.05;7.47;;;3.50;99.90;;;;;;6221490;23;20001;-73
2023/01/25 09:36:42;;;;;;;17.30;7.68;;;3.40;99.90;;;;;;6220318;23;20000;-74
2023/01/25 09:39:12;;;;;;;16.80;7.78;;;3.40;99.90;;;;;;6219035;23;20013;-73
2023/01/25 09:42:05;;;;;;;18.33;8.50;;;3.40;99.90;;;;;;6221135;23;20057;-74
2023/01/25 09:45:04;;;;;;;16.25;7.25;;;3.40;99.90;;;;;;6219557;23;20036;-74
2023/01/25 09:47:43;;;;;;;16.33;8.82;;;3.40;99.90;;;;;;6219213;23;20009;-73
2023/01/25 09:50:27;;;;;;;16.75;7.22;;;3.50;99.90;;;;;;6221302;23;19997;-72
2023/01/25 09:53:17;;;;;;;15.82;8.15;;;3.50;99.90;;;;;;6217437;23;20036;-73
2023/01/25 09:55:43;;;;;;;18.20;7.90;;;3.50;99.90;;;;;;6218899;23;20001;-72
2023/01/25 09:58:17;;;;;;;16.63;7.18;;;3.60;99.90;;;;;;6220714;23;20032;-71
2023/01/25 10:00:46;;;;;;;18.80;8.65;;;3.60;99.90;;;;;;6221311;23;19997;-72
2023/01/25 10:03:54;;;;;;;18.60;8.40;;;3.60;99.90;;;;;;6218806;23;20001;-72
2023/01/25 10:06:22;;;;;;;16.20;8.10;;;3.70;99.90;;;;;;6218807;23;20004;-73
2023/01/25 10:09:14;;;;;;;17.75;8.82;;;3.70;99.90;;;;;;6220281;23;20430;-73
2023/01/25 10:11:40;;;;;;;17.95;8.40;;;3.80;99.90;;;;;;6219256;23;20008;-73
2023/01/25 10:14:17;;;;;;;18.42;9.00;;;3.80;99.90;;;;;;6220162;23;20342;-73
2023/01/25 10:16:45;;;;;;;19.73;9.13;;;3.70;99.90;;;;;;6219762;23;20384;-73
2023/01/25 10:19:53;;;;;;;20.05;9.02;;;3.70;99.90;;;;;;6218074;23;20439;-73
2023/01/25 10:22:33;;;;;;;19.35;9.80;;;3.70;99.90;;;;;;6217804;23;20000;-73
2023/01/25 10:25:30;;;;;;;18.58;8.52;;;3.70;99.90;;;;;;6219067;23;20402;-73
2023/01/25 10:27:56;;;;;;;18.52;9.20;;;3.70;99.90;;;;;;6219011;23;20004;-73
2023/01/25 10:30:27;;;;;;;19.27;8.20;;;3.80;99.90;;;;;;6220397;23;20064;-73
2023/01/25 10:33:04;;;;;;;18.92;8.60;;;3.80;99.90;;;;;;6220066;23;19997;-73
2023/01/25 10:35:36;;;;;;;16.40;7.65;;;3.90;99.90;;;;;;6220267;23;20434;-73
2023/01/25 10:38:09;;;;;;;20.63;9.63;;;3.80;99.90;;;;;;6218399;23;20318;-73
2023/01/25 10:40:44;;;;;;;16.45;8.13;;;3.90;99.90;;;;;;6220454;23;20004;-73
2023/01/25 10:43:19;;;;;;;17.40;8.30;;;3.90;99.90;;;;;;6219354;23;20084;-73
2023/01/25 10:45:46;;;;;;;18.92;9.57;;;4.00;99.90;;;;;;6220665;23;20017;-73
2023/01/25 10:48:35;;;;;;;19.00;8.75;;;4.10;99.90;;;;;;6220187;23;20000;-73
2023/01/25 10:51:01;;;;;;;21.55;9.63;;;4.10;99.90;;;;;;6220770;23;20341;-73
2023/01/25 10:53:35;;;;;;;16.08;8.38;;;4.20;99.90;;;;;;6220156;23;20008;-73
2023/01/25 10:56:03;;;;;;;19.98;8.38;;;4.20;99.90;;;;;;6219094;23;20059;-72
2023/01/25 10:58:41;;;;;;;19.88;10.00;;;4.20;99.90;;;;;;6218378;23;20001;-72
2023/01/25 11:01:11;;;;;;;20.27;8.85;;;4.20;99.90;;;;;;6220234;23;19997;-69
2023/01/25 11:03:39;;;;;;;20.25;9.23;;;4.20;99.90;;;;;;6218938;23;20059;-69
2023/01/25 11:06:06;;;;;;;18.63;8.50;;;4.20;99.90;;;;;;6220136;23;20000;-72
2023/01/25 11:08:38;;;;;;;18.02;7.55;;;4.20;99.90;;;;;;6219549;23;20032;-74
2023/01/25 11:11:24;;;;;;;18.67;8.45;;;4.30;99.90;;;;;;6218125;23;20009;-74
2023/01/25 11:13:53;;;;;;;17.35;8.63;;;4.40;99.90;;;;;;6218417;23;20005;-74
2023/01/25 11:16:31;;;;;;;21.08;9.75;;;4.40;99.90;;;;;;6220536;23;20004;-70
2023/01/25 11:18:59;;;;;;;22.67;10.35;;;4.30;99.90;;;;;;6219951;23;20008;-76
2023/01/25 11:21:27;;;;;;;18.58;8.18;;;4.30;99.90;;;;;;6218801;23;20015;-77
2023/01/25 11:24:23;;;;;;;18.52;8.38;;;4.40;99.90;;;;;;6220015;23;20001;-78
2023/01/25 11:26:49;;;;;;;19.30;8.88;;;4.50;99.90;;;;;;6219721;23;20079;-77
2023/01/25 11:29:19;;;;;;;20.83;9.57;;;4.60;99.90;;;;;;6219727;23;20012;-76
2023/01/25 11:31:53;;;;;;;18.25;8.02;;;4.50;99.90;;;;;;6220014;23;20005;-71
2023/01/25 11:34:20;;;;;;;;;;;4.60;99.90;;;;;;6219151;23;20027;-70
2023/01/25 11:37:10;;;;;;;20.50;9.82;;;4.60;99.90;;;;;;6219475;23;19900;-73
2023/01/25 11:39:54;;;;;;;19.30;8.32;;;4.60;99.90;;;;;;6218147;23;20013;-72
2023/01/25 11:42:45;;;;;;;15.30;7.30;;;4.60;99.90;;;;;;6220023;23;20000;-72
2023/01/25 11:45:38;;;;;;;18.98;9.25;;;4.60;99.90;;;;;;6218761;23;20062;-72
2023/01/25 11:48:07;;;;;;;16.17;7.33;;;4.60;99.90;;;;;;6217983;23;20092;-72
2023/01/25 11:50:32;;;;;;;17.70;9.13;;;4.70;99.90;;;;;;6220363;23;20223;-72
2023/01/25 11:53:35;;;;;;;16.80;8.00;;;4.70;99.90;;;;;;6219775;23;20335;-72
2023/01/25 11:56:22;;;;;;;15.77;7.32;;;4.70;99.90;;;;;;6221735;23;20011;-72
2023/01/25 11:59:19;;;;;;;16.35;8.02;;;4.80;99.90;;;;;;6221957;23;20310;-72
2023/01/25 12:02:05;;;;;;;18.60;8.65;;;4.90;99.90;;;;;;6222101;23;20001;-72
2023/01/25 12:04:37;;;;;;;18.20;7.95;;;4.90;99.90;;;;;;6220702;23;20004;-72
2023/01/25 12:07:07;;;;;;;17.90;7.82;;;4.90;99.90;;;;;;6219928;23;20005;-73
2023/01/25 12:10:00;;;;;;;20.23;9.38;;;4.90;99.90;;;;;;6221777;23;20005;-71
2023/01/25 12:12:34;;;;;;;18.73;8.43;;;4.90;99.90;;;;;;6220233;23;20315;-73
2023/01/25 12:15:34;;;;;;;17.08;8.10;;;4.90;99.90;;;;;;6219350;23;20050;-73
2023/01/25 12:18:21;;;;;;;21.10;8.77;;;4.90;99.90;;;;;;6221424;23;20035;-71
2023/01/25 12:21:01;;;;;;;18.85;8.15;;;4.90;99.90;;;;;;6222144;23;20430;-72
2023/01/25 12:23:46;;;;;;;17.25;7.70;;;4.90;99.90;;;;;;6220996;23;20028;-72
2023/01/25 12:26:48;;;;;;;21.50;9.32;;;5.00;99.90;;;;;;6221871;23;19997;-72
2023/01/25 12:29:22;;;;;;;16.30;7.85;;;4.90;99.90;;;;;;6158926;23;20047;-72
2023/01/25 12:32:02;;;;;;;17.38;9.05;;;4.90;99.90;;;;;;6231657;23;20008;-71
2023/01/25 12:34:38;;;;;;;19.08;8.77;;;5.00;99.90;;;;;;6221483;23;20027;-72
2023/01/25 12:37:18;;;;;;;18.05;8.35;;;4.90;99.90;;;;;;6221528;23;20012;-74
2023/01/25 12:39:57;;;;;;;19.30;8.93;;;4.80;99.90;;;;;;6221349;23;20009;-71
2023/01/25 12:42:35;;;;;;;19.90;9.85;;;4.80;99.90;;;;;;6221810;23;20001;-73
2023/01/25 12:45:18;;;;;;;18.77;8.70;;;4.70;99.90;;;;;;6219354;23;20004;-73
2023/01/25 12:47:53;;;;;;;19.50;8.93;;;4.70;99.90;;;;;;6221614;23;19996;-72
2023/01/25 12:50:37;;;;;;;17.25;7.95;;;4.80;99.90;;;;;;6221212;23;20415;-72
2023/01/25 12:53:24;;;;;;;18.85;9.63;;;4.80;99.90;;;;;;6221501;23;20426;-72
2023/01/25 12:55:51;;;;;;;17.70;8.65;;;4.90;99.90;;;;;;6221583;23;20063;-72
2023/01/25 12:58:25;;;;;;;18.10;8.25;;;4.90;99.90;;;;;;6221414;23;20448;-72
2023/01/25 13:01:01;;;;;;;14.95;7.55;;;5.00;99.90;;;;;;6221698;23;20001;-72
2023/01/25 13:03:45;;;;;;;15.43;8.30;;;5.00;99.90;;;;;;6219626;23;20517;-72